Time;durP1;ratioP1;P1;durP2;ratioP2;P2;SDS_P1;SDS_P2;PMS_P1;PMS_P2;Temp;Humidity;BMP_temperature;BMP_pressure;BME280_temperature;BME280_humidity;BME280_pressure;Samples;Min_cycle;Max_cycle;Signal;HPM_P1;HPM_P2
2021/01/07 00:02:15;;;;;;;2.95;2.22;;;6.90;98.90;;;;;;5076034;28;20031;-50
2021/01/07 00:04:41;;;;;;;5.15;2.88;;;6.90;98.90;;;;;;5076051;28;20036;-50
2021/01/07 00:07:07;;;;;;;4.43;2.30;;;6.90;98.80;;;;;;5075937;28;20380;-50
2021/01/07 00:09:33;;;;;;;4.93;2.80;;;7.00;98.70;;;;;;5075626;28;20032;-50
2021/01/07 00:11:58;;;;;;;5.63;2.78;;;7.20;98.20;;;;;;5041107;28;20094;-50
2021/01/07 00:14:24;;;;;;;5.30;3.50;;;7.10;98.40;;;;;;5075211;28;20036;-47
2021/01/07 00:16:50;;;;;;;4.07;2.40;;;7.20;98.60;;;;;;5075737;28;20056;-54
2021/01/07 00:19:16;;;;;;;3.25;2.20;;;7.20;98.10;;;;;;5040212;28;20119;-53
2021/01/07 00:21:42;;;;;;;2.97;1.25;;;7.10;98.40;;;;;;5075164;28;20401;-48
2021/01/07 00:24:08;;;;;;;6.93;2.45;;;6.80;99.10;;;;;;5075051;28;20043;-50
2021/01/07 00:26:34;;;;;;;4.00;2.40;;;6.80;99.10;;;;;;5075284;28;20029;-50
2021/01/07 00:29:00;;;;;;;3.95;1.80;;;6.80;99.00;;;;;;5039895;28;20043;-58
2021/01/07 00:31:27;;;;;;;3.33;1.95;;;6.80;99.00;;;;;;5058329;28;20056;-49
2021/01/07 00:33:54;;;;;;;3.20;2.60;;;6.90;98.80;;;;;;5055309;28;20029;-53
2021/01/07 00:36:20;;;;;;;4.43;2.53;;;7.00;98.60;;;;;;5055090;28;20036;-49
2021/01/07 00:38:46;;;;;;;3.05;1.85;;;7.10;98.40;;;;;;5036285;28;20029;-53
2021/01/07 00:41:21;;;;;;;3.17;1.90;;;7.00;98.40;;;;;;5054882;28;20033;-54
2021/01/07 00:43:50;;;;;;;3.03;1.58;;;7.00;98.60;;;;;;5055088;28;20021;-50
2021/01/07 00:46:19;;;;;;;2.60;1.20;;;6.90;98.70;;;;;;5055362;28;20025;-48
2021/01/07 00:48:48;;;;;;;2.50;1.77;;;6.90;98.70;;;;;;5054812;28;20033;-50
2021/01/07 00:51:14;;;;;;;4.53;3.00;;;6.90;98.40;;;;;;5054831;28;20507;-48
2021/01/07 00:53:40;;;;;;;6.93;3.65;;;7.10;98.00;;;;;;5054784;28;20079;-47
2021/01/07 00:56:05;;;;;;;3.42;1.90;;;7.20;97.30;;;;;;5036448;28;20036;-51
2021/01/07 00:58:31;;;;;;;2.03;1.40;;;7.00;97.50;;;;;;5054286;28;20029;-50
2021/01/07 01:00:57;;;;;;;5.47;3.22;;;6.90;97.70;;;;;;5036222;28;20047;-50
2021/01/07 01:03:23;;;;;;;12.70;8.05;;;7.00;97.70;;;;;;5054711;28;20107;-50
2021/01/07 01:05:49;;;;;;;23.33;16.45;;;7.00;97.50;;;;;;5054540;28;20029;-50
2021/01/07 01:08:16;;;;;;;13.30;7.90;;;7.00;97.60;;;;;;5054686;28;20381;-50
2021/01/07 01:10:45;;;;;;;3.10;2.22;;;7.10;97.40;;;;;;5036074;28;20041;-50
2021/01/07 01:13:12;;;;;;;3.15;1.92;;;7.00;97.20;;;;;;5054387;28;20051;-50
2021/01/07 01:15:38;;;;;;;4.10;1.90;;;7.00;97.30;;;;;;5054384;28;20065;-50
2021/01/07 01:18:04;;;;;;;2.17;1.63;;;7.10;97.10;;;;;;5054355;28;20059;-50
2021/01/07 01:20:31;;;;;;;6.22;3.83;;;7.10;97.00;;;;;;5054284;28;20044;-50
2021/01/07 01:22:57;;;;;;;10.10;6.55;;;7.20;96.80;;;;;;5054291;28;20135;-50
2021/01/07 01:25:23;;;;;;;6.53;4.32;;;7.30;97.10;;;;;;5053577;28;20388;-50
2021/01/07 01:27:48;;;;;;;6.43;2.65;;;7.70;96.30;;;;;;5035669;28;20033;-50
2021/01/07 01:30:14;;;;;;;6.43;3.88;;;7.90;95.60;;;;;;5053203;28;20048;-50
2021/01/07 01:32:41;;;;;;;10.30;6.60;;;8.10;95.10;;;;;;5053858;28;20025;-50
2021/01/07 01:35:08;;;;;;;14.77;8.50;;;8.10;94.60;;;;;;5054239;28;20029;-50
2021/01/07 01:37:35;;;;;;;13.00;8.25;;;7.90;94.70;;;;;;5054033;28;20040;-51
2021/01/07 01:40:06;;;;;;;16.55;8.88;;;7.60;95.30;;;;;;5053670;28;20485;-50
2021/01/07 01:42:32;;;;;;;16.52;7.88;;;7.60;95.50;;;;;;5019129;28;20392;-50
2021/01/07 01:44:58;;;;;;;10.10;5.50;;;7.50;95.60;;;;;;5035843;28;20033;-50
2021/01/07 01:47:23;;;;;;;6.22;3.10;;;7.40;96.00;;;;;;5053981;28;20025;-50
2021/01/07 01:49:50;;;;;;;4.45;2.42;;;7.30;95.90;;;;;;5053951;28;20079;-50
2021/01/07 01:52:20;;;;;;;3.03;1.95;;;7.30;95.90;;;;;;5053778;28;20075;-50
2021/01/07 01:54:45;;;;;;;3.28;2.13;;;7.20;96.20;;;;;;5053881;28;20104;-50
2021/01/07 01:57:13;;;;;;;4.25;2.47;;;7.10;96.20;;;;;;5053821;28;20025;-51
2021/01/07 01:59:39;;;;;;;7.00;4.15;;;7.10;96.10;;;;;;5053619;28;20040;-50
2021/01/07 02:02:15;;;;;;;9.57;5.35;;;7.10;96.00;;;;;;5053760;28;20033;-50
2021/01/07 02:04:41;;;;;;;7.00;3.95;;;7.20;95.90;;;;;;5053557;28;20110;-50
2021/01/07 02:07:11;;;;;;;6.18;3.53;;;7.10;96.00;;;;;;5053656;28;20415;-50
2021/01/07 02:09:41;;;;;;;6.47;3.92;;;7.00;96.20;;;;;;5053641;28;20059;-50
2021/01/07 02:12:07;;;;;;;8.90;5.28;;;7.00;96.10;;;;;;5053862;28;20021;-50
2021/01/07 02:14:33;;;;;;;9.07;5.60;;;6.90;96.20;;;;;;5054040;28;20025;-50
2021/01/07 02:16:59;;;;;;;13.82;8.60;;;7.10;95.90;;;;;;5053262;28;20487;-51
2021/01/07 02:19:24;;;;;;;18.08;11.60;;;7.30;95.50;;;;;;5053564;28;20053;-50
2021/01/07 02:21:50;;;;;;;14.48;10.05;;;7.60;94.80;;;;;;5053462;28;20033;-50
2021/01/07 02:24:17;;;;;;;12.20;8.30;;;7.70;94.50;;;;;;5053340;28;20021;-50
2021/01/07 02:26:44;;;;;;;7.40;4.18;;;7.90;94.10;;;;;;5053146;28;20025;-50
2021/01/07 02:29:10;;;;;;;3.95;2.53;;;8.00;93.70;;;;;;5053543;28;20489;-50
2021/01/07 02:31:36;;;;;;;7.13;3.53;;;8.10;93.30;;;;;;5053323;28;20045;-50
2021/01/07 02:34:03;;;;;;;4.22;3.00;;;8.20;93.30;;;;;;5053157;28;20032;-50
2021/01/07 02:36:28;;;;;;;6.20;3.38;;;8.30;93.00;;;;;;5054560;28;20389;-50
2021/01/07 02:38:54;;;;;;;6.85;3.40;;;8.40;92.90;;;;;;5057377;28;20029;-50
2021/01/07 02:41:20;;;;;;;5.40;3.15;;;8.50;92.50;;;;;;5005950;28;20049;-50
2021/01/07 02:43:46;;;;;;;5.78;3.10;;;8.50;92.40;;;;;;5005770;28;20029;-50
2021/01/07 02:46:11;;;;;;;5.18;3.20;;;8.60;92.30;;;;;;5057401;28;20040;-50
2021/01/07 02:48:37;;;;;;;8.63;4.85;;;8.50;92.10;;;;;;5057440;28;20025;-50
2021/01/07 02:51:03;;;;;;;6.80;4.80;;;8.30;92.20;;;;;;5057170;28;20115;-50
2021/01/07 02:53:29;;;;;;;8.02;5.03;;;8.20;92.70;;;;;;5057223;28;20017;-50
2021/01/07 02:55:55;;;;;;;7.88;4.43;;;8.30;92.40;;;;;;5056897;28;20028;-50
2021/01/07 02:58:20;;;;;;;7.05;3.95;;;8.30;91.90;;;;;;5057057;28;20025;-50
2021/01/07 03:00:46;;;;;;;6.13;3.45;;;8.30;92.30;;;;;;5056969;28;20033;-50
2021/01/07 03:03:12;;;;;;;8.05;4.10;;;8.40;92.10;;;;;;5057004;28;20029;-50
2021/01/07 03:05:38;;;;;;;7.88;3.05;;;;;;;;;;5056926;28;20028;-50
2021/01/07 03:08:04;;;;;;;7.47;3.90;;;8.50;91.50;;;;;;5056827;28;20090;-50
2021/01/07 03:10:30;;;;;;;6.28;3.78;;;8.50;91.60;;;;;;5056822;28;20033;-50
2021/01/07 03:12:55;;;;;;;6.00;2.70;;;8.50;91.70;;;;;;5056614;28;20070;-50
2021/01/07 03:15:21;;;;;;;3.90;2.50;;;8.50;91.40;;;;;;5056732;28;20568;-50
2021/01/07 03:17:47;;;;;;;4.70;2.33;;;8.50;91.40;;;;;;5056568;28;20384;-50
2021/01/07 03:20:14;;;;;;;6.05;2.60;;;8.50;91.20;;;;;;5021631;28;20499;-50
2021/01/07 03:22:42;;;;;;;4.18;2.25;;;8.50;91.10;;;;;;5056548;28;20021;-50
2021/01/07 03:25:09;;;;;;;4.60;2.75;;;8.50;91.10;;;;;;5056529;28;20384;-50
2021/01/07 03:27:38;;;;;;;8.02;4.70;;;8.40;91.30;;;;;;4981925;28;20042;-50
2021/01/07 03:30:08;;;;;;;9.68;6.72;;;8.20;91.30;;;;;;5014758;28;20133;-50
2021/01/07 03:32:34;;;;;;;18.00;12.27;;;7.90;92.10;;;;;;5014675;28;20038;-50
2021/01/07 03:35:00;;;;;;;12.45;9.38;;;7.80;92.10;;;;;;5014593;28;20514;-50
2021/01/07 03:37:26;;;;;;;13.52;9.50;;;7.70;92.10;;;;;;5014481;28;20029;-50
2021/01/07 03:39:51;;;;;;;14.63;9.45;;;7.70;92.20;;;;;;5014351;28;20060;-50
2021/01/07 03:42:17;;;;;;;13.95;10.18;;;7.80;91.90;;;;;;5014571;28;20038;-50
2021/01/07 03:44:43;;;;;;;13.35;7.88;;;7.90;91.60;;;;;;5014494;28;20038;-50
2021/01/07 03:47:09;;;;;;;12.68;8.82;;;8.00;91.50;;;;;;5014295;28;20104;-50
2021/01/07 03:49:34;;;;;;;11.48;8.07;;;8.10;91.20;;;;;;5013434;28;20026;-50
2021/01/07 03:52:00;;;;;;;19.83;14.45;;;8.10;91.10;;;;;;5014296;28;20045;-50
2021/01/07 03:54:26;;;;;;;17.15;12.90;;;7.90;91.40;;;;;;5014225;28;20041;-50
2021/01/07 03:56:51;;;;;;;12.23;9.35;;;7.90;91.50;;;;;;5014240;28;20091;-50
2021/01/07 03:59:17;;;;;;;12.73;10.13;;;7.90;91.30;;;;;;5014172;28;20117;-50
2021/01/07 04:01:43;;;;;;;12.45;9.98;;;8.00;91.40;;;;;;5013997;28;20034;-50
2021/01/07 04:04:09;;;;;;;15.10;9.77;;;8.10;91.10;;;;;;5023932;28;20032;-50
2021/01/07 04:06:35;;;;;;;13.43;10.10;;;8.00;91.20;;;;;;5040699;28;20357;-50
2021/01/07 04:09:01;;;;;;;16.40;11.30;;;8.00;91.30;;;;;;5075702;28;20464;-51
2021/01/07 04:11:27;;;;;;;22.15;13.27;;;8.10;91.20;;;;;;5075773;28;20078;-50
2021/01/07 04:13:52;;;;;;;19.65;13.18;;;8.00;91.20;;;;;;5075673;28;20487;-50
2021/01/07 04:16:18;;;;;;;21.17;13.85;;;8.00;91.20;;;;;;5076025;28;20028;-50
2021/01/07 04:18:44;;;;;;;17.40;11.15;;;8.00;91.30;;;;;;5076065;28;20024;-50
2021/01/07 04:21:10;;;;;;;16.35;11.18;;;8.00;91.40;;;;;;5075450;28;20458;-50
2021/01/07 04:23:35;;;;;;;22.35;16.10;;;7.90;91.30;;;;;;5024385;28;20377;-50
2021/01/07 04:26:02;;;;;;;44.55;27.13;;;7.90;91.50;;;;;;5075407;28;20369;-50
2021/01/07 04:28:28;;;;;;;76.97;49.90;;;7.90;91.50;;;;;;5075267;28;20511;-50
2021/01/07 04:30:54;;;;;;;75.32;47.65;;;7.90;91.50;;;;;;5063025;28;20057;-50
2021/01/07 04:33:20;;;;;;;85.90;58.53;;;7.90;91.30;;;;;;5055256;28;20035;-50
2021/01/07 04:35:46;;;;;;;106.90;74.22;;;7.90;91.10;;;;;;5055373;28;20099;-50
2021/01/07 04:38:11;;;;;;;85.10;59.45;;;7.80;91.40;;;;;;5055143;28;20108;-50
2021/01/07 04:40:37;;;;;;;28.75;19.00;;;7.80;91.30;;;;;;5055022;28;20040;-50
2021/01/07 04:43:03;;;;;;;27.55;19.75;;;7.30;92.30;;;;;;5055023;28;20025;-50
2021/01/07 04:45:29;;;;;;;35.53;25.50;;;7.00;93.10;;;;;;5055162;28;20060;-50
2021/01/07 04:47:55;;;;;;;44.38;33.88;;;7.00;93.20;;;;;;5055189;28;20087;-50
2021/01/07 04:50:21;;;;;;;23.58;16.80;;;7.20;92.90;;;;;;5054977;28;20025;-50
2021/01/07 04:52:46;;;;;;;29.27;20.90;;;7.30;92.60;;;;;;5055052;28;20033;-50
2021/01/07 04:55:13;;;;;;;28.85;22.10;;;7.30;92.70;;;;;;5036665;28;20037;-50
2021/01/07 04:57:40;;;;;;;21.42;16.98;;;7.40;92.60;;;;;;5054806;28;20089;-50
2021/01/07 05:00:08;;;;;;;20.50;16.77;;;7.50;92.00;;;;;;5053620;28;20037;-50
2021/01/07 05:02:34;;;;;;;24.35;15.40;;;7.60;91.80;;;;;;5019959;28;20033;-50
2021/01/07 05:05:04;;;;;;;21.00;15.90;;;7.60;91.70;;;;;;5054765;28;20079;-50
2021/01/07 05:07:30;;;;;;;27.42;19.73;;;7.70;91.60;;;;;;5019656;28;20043;-50
2021/01/07 05:10:05;;;;;;;34.53;23.85;;;7.70;91.40;;;;;;5036161;28;20388;-50
2021/01/07 05:12:30;;;;;;;29.33;22.83;;;7.70;91.40;;;;;;5012668;28;20359;-50
2021/01/07 05:14:56;;;;;;;31.92;22.20;;;7.70;91.40;;;;;;5012996;28;20080;-50
2021/01/07 05:17:22;;;;;;;22.83;15.88;;;7.60;91.30;;;;;;5012484;28;20044;-50
2021/01/07 05:19:48;;;;;;;18.33;14.05;;;7.50;91.80;;;;;;5012363;28;20041;-50
2021/01/07 05:22:14;;;;;;;16.85;12.43;;;7.60;91.30;;;;;;5012498;28;20076;-50
2021/01/07 05:24:40;;;;;;;13.75;10.10;;;7.70;91.30;;;;;;4996288;28;20117;-50
2021/01/07 05:27:10;;;;;;;12.82;9.13;;;7.70;91.00;;;;;;5012593;28;20385;-50
2021/01/07 05:29:40;;;;;;;12.13;9.23;;;7.80;91.00;;;;;;4963771;28;20037;-50
2021/01/07 05:32:08;;;;;;;12.80;9.68;;;7.70;90.70;;;;;;5012401;28;20050;-50
2021/01/07 05:34:48;;;;;;;17.23;12.82;;;7.70;90.60;;;;;;5012613;28;20142;-50
2021/01/07 05:37:18;;;;;;;14.82;11.60;;;7.70;90.50;;;;;;5012263;28;20057;-50
2021/01/07 05:39:49;;;;;;;60.47;49.92;;;7.70;90.70;;;;;;4980172;28;20113;-50
2021/01/07 05:42:15;;;;;;;11.75;8.30;;;7.70;90.40;;;;;;5012129;28;20080;-50
2021/01/07 05:44:45;;;;;;;10.18;6.72;;;7.70;90.30;;;;;;5074494;28;20029;-50
2021/01/07 05:47:37;;;;;;;9.50;6.78;;;7.80;90.40;;;;;;5074006;28;20055;-50
2021/01/07 05:50:04;;;;;;;9.73;7.77;;;7.80;90.30;;;;;;5073878;28;20021;-50
2021/01/07 05:52:33;;;;;;;10.65;7.45;;;7.80;90.30;;;;;;5073985;28;20031;-50
2021/01/07 05:55:01;;;;;;;11.60;7.97;;;7.80;90.10;;;;;;5012298;28;20100;-53
2021/01/07 05:57:29;;;;;;;12.80;9.50;;;7.80;90.10;;;;;;4995725;28;20438;-50
2021/01/07 05:59:57;;;;;;;15.00;9.00;;;7.70;90.30;;;;;;5012119;28;20041;-50
2021/01/07 06:02:23;;;;;;;11.32;7.30;;;7.70;90.40;;;;;;5011835;28;20125;-50
2021/01/07 06:04:51;;;;;;;9.93;7.97;;;7.80;90.20;;;;;;5012010;28;20038;-50
2021/01/07 06:07:17;;;;;;;9.18;6.53;;;7.80;90.20;;;;;;5011860;28;20030;-50
2021/01/07 06:09:46;;;;;;;8.32;5.78;;;7.80;90.20;;;;;;5012038;28;20486;-50
2021/01/07 06:12:13;;;;;;;9.23;5.55;;;7.80;90.10;;;;;;5011721;28;20026;-50
2021/01/07 06:14:48;;;;;;;9.20;6.32;;;7.80;89.90;;;;;;5011755;28;20038;-50
2021/01/07 06:17:14;;;;;;;8.48;6.10;;;7.80;89.40;;;;;;5011872;28;20033;-50
2021/01/07 06:19:41;;;;;;;9.77;5.78;;;7.70;89.20;;;;;;5011515;28;20025;-50
2021/01/07 06:22:13;;;;;;;9.20;5.75;;;7.70;89.30;;;;;;5011887;28;20509;-49
2021/01/07 06:24:40;;;;;;;9.88;6.40;;;7.70;89.40;;;;;;5024658;28;20477;-50
2021/01/07 06:27:33;;;;;;;8.68;5.80;;;7.70;89.30;;;;;;5072593;28;20032;-50
2021/01/07 06:30:07;;;;;;;11.10;7.82;;;7.80;89.10;;;;;;5077787;28;20048;-50
2021/01/07 06:32:34;;;;;;;27.13;16.58;;;7.80;89.20;;;;;;5024933;28;20052;-50
2021/01/07 06:35:00;;;;;;;33.20;19.88;;;7.90;89.30;;;;;;5093545;28;20031;-50
2021/01/07 06:37:42;;;;;;;42.30;30.50;;;7.80;89.20;;;;;;5093762;28;20028;-53
2021/01/07 06:40:09;;;;;;;22.60;17.48;;;7.80;89.20;;;;;;5091521;28;20032;-50
2021/01/07 06:42:36;;;;;;;43.28;31.90;;;7.80;89.60;;;;;;5072910;28;20042;-50
2021/01/07 06:45:07;;;;;;;25.85;19.80;;;7.90;88.90;;;;;;5073163;28;20029;-50
2021/01/07 06:47:33;;;;;;;21.98;16.05;;;8.00;93.20;;;;;;5073085;28;20024;-50
2021/01/07 06:50:00;;;;;;;11.52;8.02;;;7.90;88.70;;;;;;5073250;28;20044;-50
2021/01/07 06:52:26;;;;;;;10.20;8.20;;;8.10;88.90;;;;;;5072876;28;20541;-50
2021/01/07 06:54:56;;;;;;;10.82;8.63;;;9.30;88.30;;;;;;5072984;28;20566;-50
2021/01/07 06:57:22;;;;;;;9.93;7.78;;;;;;;;;;5072766;28;20033;-50
2021/01/07 07:00:04;;;;;;;9.52;8.25;;;13.60;80.50;;;;;;5072989;28;20105;-50
2021/01/07 07:02:30;;;;;;;9.10;8.13;;;15.70;78.50;;;;;;5072793;28;20032;-51
2021/01/07 07:05:17;;;;;;;11.73;7.72;;;17.60;66.70;;;;;;5073023;28;20473;-51
2021/01/07 07:08:00;;;;;;;28.90;21.35;;;19.30;56.30;;;;;;5072958;28;20114;-49
2021/01/07 07:10:32;;;;;;;19.58;13.63;;;20.30;53.30;;;;;;5072816;28;20028;-50
2021/01/07 07:12:58;;;;;;;90.00;72.10;;;20.80;47.40;;;;;;5072913;28;20170;-50
2021/01/07 07:15:27;;;;;;;80.47;72.47;;;21.20;47.50;;;;;;5073039;28;20024;-50
2021/01/07 07:17:54;;;;;;;22.88;20.70;;;21.80;50.90;;;;;;5072961;28;20021;-46
2021/01/07 07:20:21;;;;;;;10.63;9.52;;;;;;;;;;5072802;28;20094;-47
2021/01/07 07:22:47;;;;;;;10.15;9.02;;;23.40;41.00;;;;;;5073000;28;20040;-44
2021/01/07 07:25:26;;;;;;;15.02;12.50;;;24.00;39.20;;;;;;5076521;28;20036;-48
2021/01/07 07:27:53;;;;;;;19.63;15.00;;;23.80;48.00;;;;;;5076371;28;20029;-47
2021/01/07 07:30:26;;;;;;;24.55;18.98;;;;;;;;;;5076291;28;20056;-48
2021/01/07 07:32:52;;;;;;;13.02;11.68;;;23.60;59.50;;;;;;5076238;28;20024;-48
2021/01/07 07:35:30;;;;;;;10.80;8.45;;;23.60;37.10;;;;;;5076399;28;20474;-48
2021/01/07 07:37:56;;;;;;;9.57;7.80;;;23.60;45.40;;;;;;5076749;28;20028;-48
2021/01/07 07:40:35;;;;;;;11.38;9.02;;;24.60;51.00;;;;;;5024610;28;20067;-48
2021/01/07 07:43:02;;;;;;;11.50;8.90;;;25.60;36.20;;;;;;5076119;28;20024;-48
2021/01/07 07:45:31;;;;;;;19.88;17.73;;;26.30;34.30;;;;;;5075845;28;20484;-48
2021/01/07 07:47:58;;;;;;;11.93;9.95;;;26.70;33.80;;;;;;5075976;28;20055;-49
2021/01/07 07:50:28;;;;;;;13.27;11.27;;;27.50;33.00;;;;;;5040875;28;20044;-50
2021/01/07 07:53:13;;;;;;;13.10;10.68;;;27.70;32.30;;;;;;5076201;28;20025;-48
2021/01/07 07:55:43;;;;;;;21.50;18.40;;;27.80;31.70;;;;;;5075495;28;20487;-48
2021/01/07 07:58:09;;;;;;;26.65;23.65;;;27.50;31.00;;;;;;5075288;28;20037;-49
2021/01/07 08:00:35;;;;;;;19.17;17.17;;;26.90;31.20;;;;;;5023993;28;20052;-49
2021/01/07 08:03:01;;;;;;;29.17;26.02;;;26.00;32.40;;;;;;5075632;28;20051;-49
2021/01/07 08:05:28;;;;;;;47.00;39.80;;;27.30;32.60;;;;;;5075605;28;20029;-50
2021/01/07 08:07:54;;;;;;;29.73;26.13;;;28.00;30.60;;;;;;5076067;28;20091;-49
2021/01/07 08:10:21;;;;;;;15.52;12.75;;;28.40;30.40;;;;;;5075527;28;20020;-52
2021/01/07 08:12:48;;;;;;;11.70;10.38;;;28.90;29.90;;;;;;5082934;28;20383;-50
2021/01/07 08:15:30;;;;;;;12.70;9.48;;;29.10;29.60;;;;;;5095305;28;20032;-50
2021/01/07 08:18:20;;;;;;;10.80;9.70;;;29.30;29.30;;;;;;5076976;28;20044;-49
2021/01/07 08:20:47;;;;;;;12.32;11.05;;;29.40;29.40;;;;;;5095596;28;20028;-49
2021/01/07 08:23:16;;;;;;;12.88;11.60;;;29.40;29.10;;;;;;5095598;28;20090;-49
2021/01/07 08:25:49;;;;;;;13.40;12.00;;;30.20;29.10;;;;;;5095676;28;20482;-49
2021/01/07 08:28:41;;;;;;;12.82;11.32;;;30.60;28.60;;;;;;5095653;28;20032;-49
2021/01/07 08:31:11;;;;;;;10.93;9.82;;;30.70;28.20;;;;;;5094670;28;20117;-49
2021/01/07 08:33:37;;;;;;;11.02;10.02;;;30.40;28.10;;;;;;5095415;28;20477;-49
2021/01/07 08:36:09;;;;;;;11.23;10.02;;;30.70;28.30;;;;;;5095410;28;20111;-49
2021/01/07 08:38:36;;;;;;;12.13;10.93;;;30.60;27.70;;;;;;5027106;28;20105;-49
2021/01/07 08:41:31;;;;;;;12.73;11.52;;;30.40;27.60;;;;;;5095274;28;20075;-49
2021/01/07 08:44:01;;;;;;;13.50;11.07;;;30.70;28.70;;;;;;5095313;28;20085;-50
2021/01/07 08:46:41;;;;;;;14.15;12.85;;;30.00;28.50;;;;;;5095201;28;20480;-51
2021/01/07 08:49:14;;;;;;;15.13;13.57;;;30.40;28.30;;;;;;5095168;28;20039;-49
2021/01/07 08:51:44;;;;;;;18.00;16.27;;;30.10;28.00;;;;;;5094965;28;20040;-50
2021/01/07 08:54:18;;;;;;;13.90;12.50;;;29.40;28.20;;;;;;5095276;28;20061;-50
2021/01/07 08:56:45;;;;;;;18.67;17.27;;;29.20;28.80;;;;;;5095243;28;20066;-49
2021/01/07 08:59:23;;;;;;;14.35;13.20;;;29.40;28.60;;;;;;5059670;28;20040;-49
2021/01/07 09:01:56;;;;;;;16.98;15.38;;;29.90;28.20;;;;;;5094389;28;20043;-50
2021/01/07 09:04:41;;;;;;;19.30;17.92;;;30.30;28.50;;;;;;5095145;28;20078;-50
2021/01/07 09:07:08;;;;;;;14.60;13.48;;;30.40;27.90;;;;;;5094867;28;20030;-50
2021/01/07 09:09:53;;;;;;;20.65;19.10;;;30.30;27.90;;;;;;5094664;28;20509;-50
2021/01/07 09:12:28;;;;;;;13.10;12.07;;;29.90;27.80;;;;;;5094399;28;20036;-49
2021/01/07 09:15:07;;;;;;;11.00;10.20;;;29.80;27.80;;;;;;5059375;28;20387;-49
2021/01/07 09:17:38;;;;;;;13.80;12.65;;;28.70;28.10;;;;;;5094540;28;20028;-50
2021/01/07 09:20:06;;;;;;;25.38;23.85;;;27.70;29.00;;;;;;5094735;28;20077;-50
2021/01/07 09:22:32;;;;;;;29.73;27.80;;;27.20;29.50;;;;;;5082907;28;20119;-50
2021/01/07 09:24:59;;;;;;;25.20;23.83;;;27.20;28.90;;;;;;5074099;28;20063;-51
2021/01/07 09:27:25;;;;;;;19.90;18.73;;;28.10;28.70;;;;;;5038906;28;20109;-50
2021/01/07 09:29:51;;;;;;;23.98;22.35;;;28.20;28.60;;;;;;5073833;28;21274;-50
2021/01/07 09:32:17;;;;;;;28.67;26.80;;;28.00;29.10;;;;;;5056353;28;20033;-50
2021/01/07 09:34:44;;;;;;;55.13;52.30;;;27.10;29.40;;;;;;5092187;28;20032;-49
2021/01/07 09:37:20;;;;;;;17.48;16.27;;;27.60;28.50;;;;;;5093374;28;20532;-50
2021/01/07 09:39:48;;;;;;;40.28;37.95;;;28.50;28.70;;;;;;5094109;28;20024;-49
2021/01/07 09:42:14;;;;;;;35.15;33.33;;;28.50;28.00;;;;;;5094014;28;20032;-49
2021/01/07 09:44:40;;;;;;;28.92;27.40;;;28.40;28.70;;;;;;5094135;28;20460;-50
2021/01/07 09:47:06;;;;;;;73.07;69.30;;;29.00;28.20;;;;;;5093020;28;20062;-49
2021/01/07 09:49:33;;;;;;;47.58;45.05;;;27.40;28.90;;;;;;5092672;28;20020;-50
2021/01/07 09:51:59;;;;;;;33.53;31.92;;;27.30;28.90;;;;;;5092778;28;20082;-50
2021/01/07 09:54:26;;;;;;;94.15;89.68;;;25.20;29.70;;;;;;5091458;28;20052;-50
2021/01/07 09:56:56;;;;;;;35.10;33.22;;;23.40;31.40;;;;;;5036979;28;20040;-50
2021/01/07 09:59:23;;;;;;;67.05;63.78;;;25.00;32.50;;;;;;5054464;28;20058;-50
2021/01/07 10:01:55;;;;;;;74.50;70.50;;;24.40;30.60;;;;;;5079065;28;20067;-49
2021/01/07 10:04:22;;;;;;;173.73;164.27;;;24.60;31.10;;;;;;5092913;28;20032;-50
2021/01/07 10:06:49;;;;;;;36.60;34.45;;;25.20;30.50;;;;;;5029819;28;20571;-49
2021/01/07 10:09:15;;;;;;;28.77;27.13;;;25.70;30.90;;;;;;5030051;28;20493;-49
2021/01/07 10:11:41;;;;;;;55.50;52.85;;;23.40;32.30;;;;;;5029589;28;20038;-50
2021/01/07 10:14:07;;;;;;;54.60;52.05;;;21.70;34.70;;;;;;5013346;28;20179;-50
2021/01/07 10:16:33;;;;;;;31.10;29.45;;;20.90;36.20;;;;;;5029658;28;20042;-50
2021/01/07 10:18:59;;;;;;;43.88;41.53;;;21.70;35.80;;;;;;5029923;28;20025;-50
2021/01/07 10:21:26;;;;;;;60.72;57.63;;;22.90;35.30;;;;;;5029849;28;20068;-50
2021/01/07 10:23:53;;;;;;;40.03;38.10;;;22.10;35.60;;;;;;5029802;28;20061;-50
2021/01/07 10:26:20;;;;;;;50.47;47.50;;;21.90;35.50;;;;;;5029963;28;20620;-50
2021/01/07 10:28:47;;;;;;;35.58;33.83;;;23.00;34.70;;;;;;5029566;28;20412;-51
2021/01/07 10:31:15;;;;;;;46.45;44.28;;;21.40;34.50;;;;;;5029605;28;20049;-50
2021/01/07 10:33:45;;;;;;;27.77;26.27;;;21.50;35.10;;;;;;5029751;28;20109;-49
2021/01/07 10:36:15;;;;;;;27.25;25.65;;;21.00;36.80;;;;;;5029861;28;20097;-50
2021/01/07 10:38:41;;;;;;;32.60;31.02;;;21.50;36.30;;;;;;5084189;28;20116;-50
2021/01/07 10:41:08;;;;;;;30.25;28.65;;;20.60;36.80;;;;;;5091899;28;20097;-49
2021/01/07 10:43:35;;;;;;;43.38;41.05;;;20.80;38.40;;;;;;5092039;28;20073;-50
2021/01/07 10:46:02;;;;;;;22.92;21.63;;;22.40;35.50;;;;;;5092106;28;20031;-49
2021/01/07 10:48:29;;;;;;;19.52;18.48;;;20.80;36.20;;;;;;5088814;28;20430;-51
2021/01/07 10:51:01;;;;;;;26.13;24.48;;;21.80;36.30;;;;;;5071787;28;20497;-50
2021/01/07 10:53:51;;;;;;;41.70;39.75;;;22.20;59.20;;;;;;5071854;28;20029;-50
2021/01/07 10:56:53;;;;;;;19.98;18.67;;;22.90;34.40;;;;;;5036195;28;20063;-47
2021/01/07 10:59:47;;;;;;;96.63;55.05;;;22.10;43.70;;;;;;5026200;28;20410;-50
2021/01/07 11:02:14;;;;;;;12.25;9.10;;;21.50;33.80;;;;;;4974559;28;20051;-51
2021/01/07 11:04:57;;;;;;;6.25;5.60;;;21.30;33.60;;;;;;4974665;28;20042;-50
2021/01/07 11:07:29;;;;;;;11.75;5.75;;;21.10;51.40;;;;;;4942789;28;20035;-50
2021/01/07 11:10:00;;;;;;;9.23;8.32;;;;;;;;;;4974401;28;20035;-49
2021/01/07 11:12:34;;;;;;;6.88;6.28;;;19.60;57.80;;;;;;4974441;28;20050;-50
2021/01/07 11:15:03;;;;;;;8.57;7.78;;;19.20;36.70;;;;;;4974436;28;20050;-49
2021/01/07 11:17:33;;;;;;;12.43;9.82;;;19.60;38.00;;;;;;4974354;28;20045;-50
2021/01/07 11:20:06;;;;;;;16.20;14.98;;;19.30;40.40;;;;;;4974585;28;20057;-49
2021/01/07 11:22:34;;;;;;;17.63;16.20;;;19.90;36.80;;;;;;4974265;28;20049;-50
2021/01/07 11:25:01;;;;;;;12.57;11.77;;;;;;;;;;4974269;28;20026;-50
2021/01/07 11:27:27;;;;;;;4.68;4.25;;;20.80;52.30;;;;;;4971936;28;20483;-50
2021/01/07 11:29:53;;;;;;;6.97;4.78;;;20.00;36.10;;;;;;4973514;28;20061;-50
2021/01/07 11:32:20;;;;;;;6.38;4.22;;;;;;;;;;4957494;28;20118;-49
2021/01/07 11:34:46;;;;;;;8.63;7.82;;;18.30;57.00;;;;;;4976433;28;20070;-50
2021/01/07 11:37:17;;;;;;;13.70;12.35;;;;;;;;;;4984472;28;20481;-49
2021/01/07 11:39:58;;;;;;;13.63;12.38;;;17.40;42.10;;;;;;5051452;28;20114;-49
2021/01/07 11:42:34;;;;;;;16.80;15.43;;;17.90;43.40;;;;;;5074816;28;20043;-50
2021/01/07 11:45:06;;;;;;;18.05;16.63;;;18.60;41.10;;;;;;5074567;28;20679;-50
2021/01/07 11:47:33;;;;;;;;;;;18.60;42.70;;;;;;5073653;28;20075;-51
2021/01/07 11:50:02;;;;;;;9.73;7.15;;;17.70;42.40;;;;;;5074384;28;19908;-47
2021/01/07 11:52:29;;;;;;;9.23;7.40;;;17.40;42.50;;;;;;5074699;28;20455;-50
2021/01/07 11:54:55;;;;;;;14.80;13.45;;;17.00;42.00;;;;;;5074599;28;20025;-49
2021/01/07 11:57:25;;;;;;;11.35;8.48;;;17.50;43.70;;;;;;5039077;28;20037;-50
2021/01/07 11:59:51;;;;;;;9.20;7.50;;;16.30;44.70;;;;;;5074402;28;20087;-50
2021/01/07 12:02:17;;;;;;;14.25;11.68;;;16.70;45.30;;;;;;5074340;28;20037;-49
2021/01/07 12:04:44;;;;;;;10.10;7.90;;;16.60;46.20;;;;;;5056178;28;20040;-50
2021/01/07 12:07:34;;;;;;;10.63;8.35;;;;;;;;;;5084389;28;20025;-50
2021/01/07 12:10:03;;;;;;;7.78;6.93;;;15.70;87.20;;;;;;5088856;28;20032;-50
2021/01/07 12:12:45;;;;;;;8.43;6.03;;;15.80;47.80;;;;;;5022174;28;20068;-49
2021/01/07 12:15:17;;;;;;;13.65;11.07;;;15.60;47.90;;;;;;5027509;28;20063;-49
2021/01/07 12:17:43;;;;;;;10.30;7.75;;;16.70;49.00;;;;;;5038877;28;20047;-50
2021/01/07 12:20:10;;;;;;;6.45;5.38;;;16.30;48.30;;;;;;5074366;28;20442;-49
2021/01/07 12:22:37;;;;;;;8.10;6.25;;;16.20;48.40;;;;;;5022875;28;20130;-50
2021/01/07 12:25:05;;;;;;;8.48;4.75;;;16.10;49.00;;;;;;5074102;28;20476;-50
2021/01/07 12:27:31;;;;;;;5.57;3.83;;;16.30;48.50;;;;;;5022032;28;20082;-50
2021/01/07 12:29:58;;;;;;;7.05;4.50;;;15.90;47.80;;;;;;5074094;28;20048;-49
2021/01/07 12:32:33;;;;;;;7.20;4.40;;;15.70;48.80;;;;;;5074215;28;20085;-48
2021/01/07 12:35:03;;;;;;;10.20;7.03;;;15.20;48.90;;;;;;5074063;28;20032;-47
2021/01/07 12:37:39;;;;;;;20.58;12.30;;;15.00;49.80;;;;;;5011835;28;20046;-47
2021/01/07 12:40:11;;;;;;;8.60;6.72;;;14.90;49.10;;;;;;5011418;28;20362;-48
2021/01/07 12:43:02;;;;;;;9.77;7.03;;;14.90;50.10;;;;;;4995595;28;20033;-50
2021/01/07 12:45:29;;;;;;;13.18;8.43;;;15.10;50.40;;;;;;5011868;28;20037;-47
2021/01/07 12:47:55;;;;;;;13.68;8.13;;;15.40;50.60;;;;;;5011656;28;20470;-48
2021/01/07 12:50:24;;;;;;;13.98;8.35;;;15.30;50.40;;;;;;5011602;28;20157;-47
2021/01/07 12:52:50;;;;;;;11.23;7.70;;;14.90;51.60;;;;;;4994930;28;20410;-47